createdAt,value
2022-10-13T00:01:06.921Z,9.43
2022-10-13T00:03:33.896Z,9.37
2022-10-13T00:06:00.938Z,10.40
2022-10-13T00:08:28.039Z,8.37
2022-10-13T00:10:54.888Z,9.30
2022-10-13T00:13:21.828Z,9.20
2022-10-13T00:15:48.968Z,10.53
2022-10-13T00:18:16.715Z,9.33
2022-10-13T00:20:46.861Z,8.43
2022-10-13T00:23:14.039Z,8.97
2022-10-13T00:25:46.167Z,9.17
2022-10-13T00:28:13.642Z,9.47
2022-10-13T00:30:41.282Z,9.53
2022-10-13T00:33:09.627Z,8.87
2022-10-13T00:35:42.411Z,8.80
2022-10-13T00:38:09.520Z,10.47
2022-10-13T00:40:44.920Z,8.47
2022-10-13T00:43:21.109Z,10.00
2022-10-13T00:45:50.838Z,8.90
2022-10-13T00:48:35.941Z,8.20
2022-10-13T00:51:02.911Z,8.13
2022-10-13T00:53:34.412Z,8.10
2022-10-13T00:56:02.942Z,8.70
2022-10-13T00:58:31.845Z,8.53
2022-10-13T01:00:59.609Z,8.33
2022-10-13T01:03:27.061Z,8.53
2022-10-13T01:05:58.116Z,8.17
2022-10-13T01:08:27.107Z,8.40
2022-10-13T01:10:53.890Z,9.20
2022-10-13T01:13:45.589Z,8.60
2022-10-13T01:16:33.504Z,7.80
2022-10-13T01:19:31.589Z,8.13
2022-10-13T01:22:14.308Z,7.53
2022-10-13T01:24:41.125Z,7.70
2022-10-13T01:27:10.927Z,7.57
2022-10-13T01:30:07.597Z,7.97
2022-10-13T01:32:44.408Z,6.60
2022-10-13T01:35:28.009Z,7.87
2022-10-13T01:37:54.955Z,7.30
2022-10-13T01:40:32.457Z,7.33
2022-10-13T01:43:07.121Z,8.37
2022-10-13T01:45:54.774Z,7.63
2022-10-13T01:48:26.129Z,7.10
2022-10-13T01:50:54.315Z,8.10
2022-10-13T01:53:22.474Z,7.43
2022-10-13T01:55:57.968Z,8.10
2022-10-13T01:58:33.954Z,8.30
2022-10-13T02:01:12.476Z,8.57
2022-10-13T02:03:45.529Z,8.63
2022-10-13T02:06:34.696Z,7.57
2022-10-13T02:09:23.124Z,8.67
2022-10-13T02:12:07.229Z,8.40
2022-10-13T02:14:36.894Z,7.90
2022-10-13T02:17:05.326Z,7.00
2022-10-13T02:19:35.972Z,7.93
2022-10-13T02:22:03.987Z,7.67
2022-10-13T02:24:30.962Z,7.93
2022-10-13T02:26:57.907Z,7.67
2022-10-13T02:29:25.804Z,7.50
2022-10-13T02:31:54.930Z,7.23
2022-10-13T02:34:22.020Z,6.80
2022-10-13T02:36:48.960Z,6.50
2022-10-13T02:39:16.246Z,7.60
2022-10-13T02:44:27.735Z,6.97
2022-10-13T02:46:54.600Z,6.90
2022-10-13T02:49:21.663Z,5.63
2022-10-13T02:51:48.554Z,6.30
2022-10-13T02:54:15.415Z,6.73
2022-10-13T02:56:42.368Z,5.70
2022-10-13T02:59:09.244Z,6.83
2022-10-13T03:01:41.268Z,6.33
2022-10-13T03:04:09.029Z,7.83
2022-10-13T03:06:35.954Z,7.37
2022-10-13T03:09:03.099Z,7.67
2022-10-13T03:11:31.032Z,7.43
2022-10-13T03:13:57.954Z,6.93
2022-10-13T03:16:24.796Z,8.27
2022-10-13T03:18:51.646Z,7.07
2022-10-13T03:21:18.549Z,8.13
2022-10-13T03:23:45.485Z,7.50
2022-10-13T03:26:12.383Z,8.17
2022-10-13T03:28:39.282Z,7.83
2022-10-13T03:31:08.511Z,8.47
2022-10-13T03:33:35.488Z,8.03
2022-10-13T03:36:04.868Z,8.47
2022-10-13T03:38:34.031Z,8.30
2022-10-13T03:41:13.208Z,7.90
2022-10-13T03:43:41.371Z,8.57
2022-10-13T03:46:09.267Z,8.67
2022-10-13T03:48:37.052Z,9.77
2022-10-13T03:51:16.745Z,8.90
2022-10-13T03:53:43.651Z,9.73
2022-10-13T03:56:15.152Z,9.00
2022-10-13T03:58:42.933Z,9.33
2022-10-13T04:01:12.830Z,9.80
2022-10-13T04:03:39.796Z,9.47
2022-10-13T04:06:07.133Z,8.47
2022-10-13T04:08:34.660Z,10.00
2022-10-13T04:11:04.464Z,9.70
2022-10-13T04:13:31.965Z,10.07
2022-10-13T04:16:07.536Z,10.00
2022-10-13T04:18:34.968Z,9.37
2022-10-13T04:21:01.938Z,9.00
2022-10-13T04:23:28.814Z,9.73
2022-10-13T04:25:56.611Z,9.53
2022-10-13T04:28:23.504Z,8.83
2022-10-13T04:30:50.431Z,8.87
2022-10-13T04:33:17.417Z,8.93
2022-10-13T04:35:44.307Z,8.43
2022-10-13T04:38:11.155Z,8.17
2022-10-13T04:40:38.057Z,8.10
2022-10-13T04:43:04.908Z,8.40
2022-10-13T04:45:31.812Z,8.57
2022-10-13T04:48:00.592Z,8.43
2022-10-13T04:50:27.488Z,8.63
2022-10-13T04:52:54.400Z,8.63
2022-10-13T04:55:21.284Z,8.33
2022-10-13T04:57:48.155Z,8.13
2022-10-13T05:00:15.254Z,8.57
2022-10-13T05:02:42.148Z,7.60
2022-10-13T05:05:09.466Z,8.23
2022-10-13T05:07:36.483Z,8.40
2022-10-13T05:10:03.787Z,8.73
2022-10-13T05:12:30.736Z,8.50
2022-10-13T05:14:58.942Z,8.73
2022-10-13T05:17:25.862Z,8.83
2022-10-13T05:19:52.768Z,8.37
2022-10-13T05:22:19.967Z,8.13
2022-10-13T05:24:47.087Z,8.33
2022-10-13T05:27:14.037Z,8.37
2022-10-13T05:29:41.308Z,7.77
2022-10-13T05:32:08.751Z,8.23
2022-10-13T05:34:35.644Z,8.83
2022-10-13T05:37:02.502Z,8.87
2022-10-13T05:39:29.504Z,9.00
2022-10-13T05:41:56.431Z,8.63
2022-10-13T05:44:24.747Z,7.43
2022-10-13T05:46:51.734Z,8.63
2022-10-13T05:49:18.637Z,8.93
2022-10-13T05:51:48.939Z,8.17
2022-10-13T05:54:21.004Z,8.40
2022-10-13T05:56:59.800Z,7.57
2022-10-13T05:59:28.948Z,8.50
2022-10-13T06:01:56.339Z,8.30
2022-10-13T06:04:31.779Z,7.70
2022-10-13T06:06:58.685Z,8.37
2022-10-13T06:09:26.847Z,8.73
2022-10-13T06:11:53.755Z,8.73
2022-10-13T06:14:20.804Z,8.63
2022-10-13T06:16:47.704Z,8.23
2022-10-13T06:19:14.668Z,8.13
2022-10-13T06:21:42.529Z,8.07
2022-10-13T06:24:09.423Z,9.23
2022-10-13T06:26:36.328Z,9.07
2022-10-13T06:29:03.327Z,8.67
2022-10-13T06:31:30.309Z,8.30
2022-10-13T06:33:58.723Z,9.07
2022-10-13T06:36:25.717Z,8.77
2022-10-13T06:38:53.229Z,8.40
2022-10-13T06:41:20.287Z,8.90
2022-10-13T06:43:48.328Z,8.43
2022-10-13T06:46:15.290Z,8.37
2022-10-13T06:48:44.402Z,8.97
2022-10-13T06:51:12.915Z,8.30
2022-10-13T06:53:39.891Z,7.73
2022-10-13T06:56:07.824Z,8.53
2022-10-13T06:58:36.117Z,7.87
2022-10-13T07:01:03.706Z,7.60
2022-10-13T07:03:31.893Z,7.43
2022-10-13T07:06:03.524Z,7.73
2022-10-13T07:08:31.260Z,7.00
2022-10-13T07:10:58.772Z,8.47
2022-10-13T07:13:26.129Z,7.90
2022-10-13T07:15:53.075Z,8.30
2022-10-13T07:18:20.072Z,8.23
2022-10-13T07:20:46.922Z,8.00
2022-10-13T07:23:13.803Z,8.00
2022-10-13T07:25:40.703Z,7.70
2022-10-13T07:28:07.573Z,7.20
2022-10-13T07:30:34.413Z,9.07
2022-10-13T07:33:03.386Z,8.07
2022-10-13T07:35:31.011Z,8.13
2022-10-13T07:37:58.191Z,7.37
2022-10-13T07:40:25.242Z,8.77
2022-10-13T07:42:52.174Z,8.47
2022-10-13T07:45:19.032Z,10.13
2022-10-13T07:47:45.920Z,7.57
2022-10-13T07:50:12.974Z,8.03
2022-10-13T07:52:40.235Z,7.40
2022-10-13T07:55:07.564Z,7.03
2022-10-13T07:57:35.074Z,7.40
2022-10-13T08:00:02.061Z,8.10
2022-10-13T08:02:30.236Z,8.27
2022-10-13T08:04:57.151Z,7.70
2022-10-13T08:07:24.085Z,7.57
2022-10-13T08:09:50.988Z,7.07
2022-10-13T08:12:18.231Z,7.53
2022-10-13T08:14:45.605Z,7.20
2022-10-13T08:17:12.566Z,7.20
2022-10-13T08:19:39.433Z,7.90
2022-10-13T08:22:09.749Z,6.23
2022-10-13T08:24:37.131Z,7.27
2022-10-13T08:27:04.239Z,6.70
2022-10-13T08:29:31.133Z,6.63
2022-10-13T08:31:58.061Z,5.93
2022-10-13T08:34:25.564Z,6.97
2022-10-13T08:36:54.697Z,6.67
2022-10-13T08:39:22.405Z,7.43
2022-10-13T08:41:49.887Z,6.87
2022-10-13T08:47:29.565Z,7.43
2022-10-13T08:50:01.000Z,7.10
2022-10-13T08:52:42.312Z,7.13
2022-10-13T08:55:21.577Z,6.97
2022-10-13T08:57:48.632Z,6.50
2022-10-13T09:00:15.689Z,6.63
2022-10-13T09:02:44.133Z,6.93
2022-10-13T09:05:22.125Z,6.40
2022-10-13T09:07:50.253Z,7.33
2022-10-13T09:10:18.800Z,7.63
2022-10-13T09:12:45.671Z,7.40
2022-10-13T09:15:13.067Z,6.53
2022-10-13T09:17:41.611Z,6.97
2022-10-13T09:20:18.646Z,7.03
2022-10-13T09:23:03.503Z,6.47
2022-10-13T09:25:39.380Z,7.53
2022-10-13T09:28:15.005Z,7.03
2022-10-13T09:30:44.513Z,8.50
2022-10-13T09:33:14.167Z,7.30
2022-10-13T09:36:00.652Z,6.97
2022-10-13T09:38:28.365Z,8.13
2022-10-13T09:41:00.255Z,8.43
2022-10-13T09:43:34.787Z,7.77
2022-10-13T09:46:11.285Z,8.27
2022-10-13T09:48:42.461Z,7.07
2022-10-13T09:51:31.237Z,8.00
2022-10-13T09:53:59.739Z,8.37
2022-10-13T09:56:44.180Z,7.87
2022-10-13T09:59:31.316Z,8.70
2022-10-13T10:02:01.077Z,9.03
2022-10-13T10:04:36.764Z,10.53
2022-10-13T10:07:13.012Z,9.47
2022-10-13T10:09:51.733Z,8.53
2022-10-13T10:12:27.569Z,8.83
2022-10-13T10:14:55.607Z,9.60
2022-10-13T10:17:47.076Z,8.80
2022-10-13T10:20:29.395Z,9.90
2022-10-13T10:23:39.464Z,8.97
2022-10-13T10:26:32.948Z,9.37
2022-10-13T10:29:49.072Z,9.60
2022-10-13T10:32:17.044Z,9.73
2022-10-13T10:35:15.119Z,10.00
2022-10-13T10:38:07.475Z,10.43
2022-10-13T10:40:54.440Z,11.17
2022-10-13T10:43:33.030Z,10.50
2022-10-13T10:46:00.834Z,10.73
2022-10-13T10:48:38.828Z,11.17
2022-10-13T10:51:11.448Z,12.47
2022-10-13T10:53:53.781Z,10.63
2022-10-13T10:56:34.955Z,11.73
2022-10-13T10:59:23.278Z,11.67
2022-10-13T11:02:08.931Z,9.33
2022-10-13T11:04:40.450Z,11.73
2022-10-13T11:07:12.398Z,11.77
2022-10-13T11:09:42.373Z,11.57
2022-10-13T11:12:55.679Z,9.87
2022-10-13T11:15:24.303Z,11.80
2022-10-13T11:17:52.279Z,10.67
2022-10-13T11:20:22.216Z,10.97
2022-10-13T11:23:01.429Z,11.07
2022-10-13T11:25:45.754Z,11.70
2022-10-13T11:28:22.062Z,10.63
2022-10-13T11:31:35.048Z,10.67
2022-10-13T11:34:03.717Z,10.50
2022-10-13T11:36:51.265Z,10.83
2022-10-13T11:39:25.649Z,10.93
2022-10-13T11:42:12.393Z,11.73
2022-10-13T11:44:57.348Z,11.53
2022-10-13T11:47:46.706Z,10.90
2022-10-13T11:50:25.448Z,9.50
2022-10-13T11:53:07.835Z,10.33
2022-10-13T11:55:53.959Z,11.23
2022-10-13T11:58:26.267Z,8.77
2022-10-13T12:01:06.575Z,8.80
2022-10-13T12:03:42.388Z,10.03
2022-10-13T12:06:33.538Z,8.13
2022-10-13T12:09:17.584Z,8.50
2022-10-13T12:11:45.234Z,7.30
2022-10-13T12:14:29.644Z,7.77
2022-10-13T12:16:59.128Z,8.53
2022-10-13T12:19:29.135Z,7.13
2022-10-13T12:21:58.835Z,7.33
2022-10-13T12:24:29.096Z,6.87
2022-10-13T12:26:57.171Z,7.57
2022-10-13T12:29:27.570Z,7.13
2022-10-13T12:31:55.511Z,8.87
2022-10-13T12:34:32.327Z,8.03
2022-10-13T12:37:02.372Z,7.30
2022-10-13T12:39:32.236Z,7.13
2022-10-13T12:42:00.780Z,6.47
2022-10-13T12:44:30.195Z,5.73
2022-10-13T12:46:59.320Z,7.27
2022-10-13T12:49:34.051Z,7.57
2022-10-13T12:52:03.870Z,6.93
2022-10-13T12:54:36.474Z,5.87
2022-10-13T12:57:38.499Z,5.73
2022-10-13T13:00:20.510Z,4.97
2022-10-13T13:02:52.025Z,4.87
2022-10-13T13:05:39.955Z,4.60
2022-10-13T13:08:25.862Z,4.73
2022-10-13T13:11:19.789Z,4.43
2022-10-13T13:13:46.653Z,5.37
2022-10-13T13:16:18.754Z,5.37
2022-10-13T13:18:47.426Z,4.70
2022-10-13T13:21:19.327Z,4.50
2022-10-13T13:23:51.237Z,5.10
2022-10-13T13:26:23.014Z,4.50
2022-10-13T13:28:52.542Z,5.07
2022-10-13T13:31:22.484Z,4.80
2022-10-13T13:33:49.899Z,4.40
2022-10-13T13:36:26.148Z,4.73
2022-10-13T13:38:54.459Z,4.07
2022-10-13T13:41:22.270Z,5.13
2022-10-13T13:43:49.472Z,4.60
2022-10-13T13:46:25.606Z,4.73
2022-10-13T13:48:53.515Z,4.47
2022-10-13T13:51:20.496Z,4.23
2022-10-13T13:53:47.636Z,4.27
2022-10-13T13:56:16.969Z,4.03
2022-10-13T13:58:44.658Z,5.20
2022-10-13T14:01:12.410Z,4.70
2022-10-13T14:03:39.385Z,4.40
2022-10-13T14:06:06.544Z,4.53
2022-10-13T14:08:35.544Z,4.00
2022-10-13T14:11:06.320Z,4.37
2022-10-13T14:13:34.160Z,4.70
2022-10-13T14:16:02.610Z,4.60
2022-10-13T14:18:30.837Z,5.20
2022-10-13T14:20:58.076Z,4.73
2022-10-13T14:23:25.208Z,3.80
2022-10-13T14:25:52.096Z,4.20
2022-10-13T14:28:19.108Z,4.70
2022-10-13T14:30:46.093Z,4.60
2022-10-13T14:33:13.025Z,4.00
2022-10-13T14:35:39.863Z,3.53
2022-10-13T14:38:06.783Z,4.10
2022-10-13T14:40:33.753Z,3.77
2022-10-13T14:43:00.600Z,3.83
2022-10-13T14:45:27.540Z,4.23
2022-10-13T14:47:54.394Z,4.17
2022-10-13T14:50:21.257Z,3.77
2022-10-13T14:52:48.231Z,4.03
2022-10-13T14:55:15.235Z,3.83
2022-10-13T14:57:42.095Z,3.97
2022-10-13T15:00:10.891Z,3.10
2022-10-13T15:02:37.757Z,2.97
2022-10-13T15:05:05.083Z,3.77
2022-10-13T15:07:32.103Z,3.40
2022-10-13T15:10:06.658Z,3.53
2022-10-13T15:12:34.114Z,3.10
2022-10-13T15:15:00.981Z,2.97
2022-10-13T15:17:28.275Z,3.37
2022-10-13T15:19:55.417Z,3.50
2022-10-13T15:22:23.589Z,3.57
2022-10-13T15:24:50.817Z,3.97
2022-10-13T15:27:17.771Z,4.23
2022-10-13T15:29:44.631Z,4.10
2022-10-13T15:32:18.000Z,4.63
2022-10-13T15:34:46.354Z,4.57
2022-10-13T15:37:13.503Z,4.80
2022-10-13T15:39:40.479Z,4.27
2022-10-13T15:42:07.416Z,4.53
2022-10-13T15:44:57.356Z,3.73
2022-10-13T15:47:21.313Z,4.87
2022-10-13T15:49:48.215Z,4.87
2022-10-13T15:52:15.289Z,5.17
2022-10-13T15:54:43.425Z,5.10
2022-10-13T15:57:10.276Z,5.00
2022-10-13T15:59:37.124Z,5.80
2022-10-13T16:02:04.047Z,9.50
2022-10-13T16:04:36.375Z,8.03
2022-10-13T16:07:04.587Z,9.13
2022-10-13T16:09:31.562Z,8.87
2022-10-13T16:11:58.403Z,10.30
2022-10-13T16:14:25.399Z,10.90
2022-10-13T16:16:52.368Z,9.73
2022-10-13T16:19:19.245Z,10.00
2022-10-13T16:21:47.053Z,8.00
2022-10-13T16:24:13.906Z,8.30
2022-10-13T16:26:40.765Z,7.17
2022-10-13T16:29:07.706Z,5.63
2022-10-13T16:31:35.598Z,5.57
2022-10-13T16:34:02.652Z,4.87
2022-10-13T16:36:29.647Z,4.43
2022-10-13T16:38:56.624Z,3.97
2022-10-13T16:41:24.020Z,3.60
2022-10-13T16:43:51.048Z,3.23
2022-10-13T16:46:19.926Z,2.83
2022-10-13T16:48:47.932Z,2.93
2022-10-13T16:51:23.707Z,2.50
2022-10-13T16:53:58.708Z,2.40
2022-10-13T16:56:30.198Z,2.80
2022-10-13T16:59:02.904Z,2.30
2022-10-13T17:01:31.125Z,3.10
2022-10-13T17:03:59.013Z,2.03
2022-10-13T17:06:28.588Z,1.73
2022-10-13T17:08:59.971Z,1.80
2022-10-13T17:11:30.112Z,1.60
2022-10-13T17:13:58.428Z,1.80
2022-10-13T17:16:27.665Z,1.90
2022-10-13T17:18:55.467Z,1.90
2022-10-13T17:21:22.531Z,2.83
2022-10-13T17:23:49.772Z,3.10
2022-10-13T17:26:18.089Z,3.30
2022-10-13T17:28:45.580Z,3.40
2022-10-13T17:31:22.390Z,3.80
2022-10-13T17:33:50.567Z,3.27
2022-10-13T17:36:20.802Z,4.60
2022-10-13T17:38:49.082Z,3.67
2022-10-13T17:41:16.760Z,3.10
2022-10-13T17:43:44.425Z,3.13
2022-10-13T17:46:36.358Z,3.17
2022-10-13T17:49:04.910Z,4.03
2022-10-13T17:51:31.825Z,3.30
2022-10-13T17:53:59.959Z,4.10
2022-10-13T17:56:27.960Z,3.87
2022-10-13T17:58:55.285Z,3.30
2022-10-13T18:01:24.846Z,3.57
2022-10-13T18:03:54.735Z,4.00
2022-10-13T18:06:22.499Z,4.10
2022-10-13T18:08:53.151Z,4.10
2022-10-13T18:11:21.766Z,4.47
2022-10-13T18:13:48.784Z,5.00
2022-10-13T18:16:21.604Z,5.03
2022-10-13T18:18:50.230Z,5.70
2022-10-13T18:21:19.339Z,4.97
2022-10-13T18:23:46.507Z,5.40
2022-10-13T18:26:16.306Z,5.80
2022-10-13T18:28:45.372Z,5.60
2022-10-13T18:31:17.914Z,8.43
2022-10-13T18:33:45.244Z,7.93
2022-10-13T18:36:13.720Z,8.43
2022-10-13T18:38:40.646Z,8.67
2022-10-13T18:41:07.657Z,9.40
2022-10-13T18:43:35.547Z,10.70
2022-10-13T18:46:03.097Z,18.73
2022-10-13T18:48:30.216Z,11.20
2022-10-13T18:50:57.193Z,10.27
2022-10-13T18:53:24.126Z,10.40
2022-10-13T18:56:00.133Z,11.23
2022-10-13T18:58:27.025Z,10.57
2022-10-13T19:00:59.599Z,11.53
2022-10-13T19:03:26.603Z,12.63
2022-10-13T19:05:53.672Z,12.07
2022-10-13T19:08:20.574Z,11.97
2022-10-13T19:10:47.443Z,14.30
2022-10-13T19:13:14.376Z,14.83
2022-10-13T19:15:41.219Z,15.13
2022-10-13T19:18:10.073Z,15.60
2022-10-13T19:20:37.135Z,15.80
2022-10-13T19:23:04.086Z,15.23
2022-10-13T19:25:31.116Z,16.10
2022-10-13T19:27:58.299Z,16.83
2022-10-13T19:30:28.403Z,17.30
2022-10-13T19:32:55.264Z,17.07
2022-10-13T19:35:22.224Z,18.77
2022-10-13T19:37:49.206Z,23.33
2022-10-13T19:40:16.572Z,20.53
2022-10-13T19:42:43.534Z,20.37
2022-10-13T19:45:11.543Z,19.50
2022-10-13T19:47:38.715Z,20.40
2022-10-13T19:50:06.425Z,22.17
2022-10-13T19:52:33.387Z,21.30
2022-10-13T19:55:01.243Z,23.70
2022-10-13T19:57:28.083Z,24.40
2022-10-13T19:59:54.965Z,27.17
2022-10-13T20:02:21.837Z,26.27
2022-10-13T20:04:48.796Z,26.03
2022-10-13T20:07:15.755Z,27.80
2022-10-13T20:09:42.619Z,28.87
2022-10-13T20:12:09.651Z,27.67
2022-10-13T20:14:36.620Z,28.07
2022-10-13T20:17:03.580Z,29.17
2022-10-13T20:19:30.492Z,27.57
2022-10-13T20:21:58.554Z,28.60
2022-10-13T20:24:25.460Z,30.23
2022-10-13T20:26:52.324Z,29.47
2022-10-13T20:29:19.270Z,30.77
2022-10-13T20:31:46.657Z,30.43
2022-10-13T20:34:13.643Z,30.20
2022-10-13T20:36:41.556Z,31.37
2022-10-13T20:39:09.148Z,30.60
2022-10-13T20:41:36.808Z,31.67
2022-10-13T20:44:04.335Z,29.70
2022-10-13T20:46:31.324Z,32.27
2022-10-13T20:49:13.789Z,32.43
2022-10-13T20:51:43.058Z,33.00
2022-10-13T20:54:11.473Z,31.40
2022-10-13T20:56:38.827Z,32.30
2022-10-13T20:59:08.259Z,32.57
2022-10-13T21:01:35.863Z,31.80
2022-10-13T21:04:02.941Z,34.47
2022-10-13T21:06:29.992Z,34.50
2022-10-13T21:08:57.207Z,33.97
2022-10-13T21:11:24.957Z,32.30
2022-10-13T21:13:53.475Z,35.00
2022-10-13T21:16:27.361Z,33.43
2022-10-13T21:18:55.817Z,32.80
2022-10-13T21:21:25.261Z,34.10
2022-10-13T21:24:00.536Z,34.57
2022-10-13T21:26:29.312Z,36.17
2022-10-13T21:28:56.755Z,35.23
2022-10-13T21:31:24.758Z,34.63
2022-10-13T21:33:52.015Z,34.83
2022-10-13T21:36:25.160Z,34.77
2022-10-13T21:38:54.599Z,34.33
2022-10-13T21:41:21.655Z,33.60
2022-10-13T21:43:49.943Z,34.10
2022-10-13T21:46:28.410Z,32.30
2022-10-13T21:48:57.617Z,34.50
2022-10-13T21:51:33.055Z,34.43
2022-10-13T21:54:03.509Z,34.03
2022-10-13T21:56:31.606Z,32.63
2022-10-13T21:58:58.595Z,33.87
2022-10-13T22:01:25.543Z,32.87
2022-10-13T22:03:57.449Z,33.63
2022-10-13T22:06:25.519Z,31.17
2022-10-13T22:08:54.000Z,30.93
2022-10-13T22:11:22.858Z,32.13
2022-10-13T22:13:49.945Z,31.33
2022-10-13T22:16:20.223Z,31.40
2022-10-13T22:18:47.428Z,33.30
2022-10-13T22:21:18.436Z,31.33
2022-10-13T22:23:46.293Z,33.00
2022-10-13T22:26:15.220Z,32.13
2022-10-13T22:28:42.883Z,32.33
2022-10-13T22:31:12.198Z,31.47
2022-10-13T22:33:40.553Z,33.17
2022-10-13T22:36:48.010Z,31.97
2022-10-13T22:39:15.844Z,29.77
2022-10-13T22:41:43.398Z,29.27
2022-10-13T22:44:10.720Z,30.83
2022-10-13T22:46:38.723Z,31.37
2022-10-13T22:49:07.216Z,30.70
2022-10-13T22:51:36.053Z,29.00
2022-10-13T22:54:03.642Z,28.90
2022-10-13T22:56:32.148Z,30.00
2022-10-13T22:59:05.604Z,28.77
2022-10-13T23:01:32.945Z,27.90
2022-10-13T23:04:00.275Z,30.03
2022-10-13T23:06:29.998Z,29.80
2022-10-13T23:08:59.692Z,28.13
2022-10-13T23:11:26.774Z,29.00
2022-10-13T23:13:53.748Z,29.40
2022-10-13T23:16:23.341Z,29.97
2022-10-13T23:18:50.583Z,28.17
2022-10-13T23:21:20.654Z,28.77
2022-10-13T23:23:47.955Z,29.20
2022-10-13T23:26:16.663Z,28.60
2022-10-13T23:28:44.633Z,29.47
2022-10-13T23:31:16.397Z,28.73
2022-10-13T23:33:43.733Z,28.40
2022-10-13T23:36:16.134Z,28.10
2022-10-13T23:38:43.144Z,27.63
2022-10-13T23:41:12.755Z,27.37
2022-10-13T23:43:40.315Z,29.73
2022-10-13T23:46:08.429Z,27.83
2022-10-13T23:48:35.268Z,26.60
2022-10-13T23:51:11.607Z,26.70
2022-10-13T23:53:41.540Z,26.43
2022-10-13T23:56:09.645Z,25.67
2022-10-13T23:58:38.296Z,25.93
